createdAt,value
2022-07-30T00:00:40.325Z,76.32
2022-07-30T00:01:40.393Z,78.23
2022-07-30T00:02:40.310Z,78.07
2022-07-30T00:03:40.310Z,76.83
2022-07-30T00:04:40.320Z,76.53
2022-07-30T00:05:40.269Z,75.72
2022-07-30T00:06:40.259Z,75.92
2022-07-30T00:07:40.250Z,75.82
2022-07-30T00:08:40.246Z,75.82
2022-07-30T00:09:40.239Z,76.43
2022-07-30T00:10:40.237Z,76.53
2022-07-30T00:11:40.205Z,78.44
2022-07-30T00:12:40.195Z,78.17
2022-07-30T00:13:40.185Z,77.91
2022-07-30T00:14:40.189Z,77.27
2022-07-30T00:15:40.175Z,76.63
2022-07-30T00:16:40.232Z,76.43
2022-07-30T00:17:40.139Z,76.23
2022-07-30T00:18:40.129Z,76.32
2022-07-30T00:19:40.138Z,77.33
2022-07-30T00:20:40.108Z,77.13
2022-07-30T00:21:40.097Z,77.87
2022-07-30T00:22:40.093Z,79.18
2022-07-30T00:23:40.087Z,80.22
2022-07-30T00:24:41.080Z,79.56
2022-07-30T00:25:40.051Z,79.86
2022-07-30T00:26:40.050Z,80.80
2022-07-30T00:27:40.038Z,81.41
2022-07-30T00:28:40.037Z,81.55
2022-07-30T00:29:44.952Z,80.84
2022-07-30T00:30:41.046Z,79.83
2022-07-30T00:31:39.992Z,80.54
2022-07-30T00:32:39.981Z,81.24
2022-07-30T00:33:39.982Z,81.35
2022-07-30T00:34:40.002Z,81.65
2022-07-30T00:35:39.969Z,81.45
2022-07-30T00:36:39.937Z,81.24
2022-07-30T00:37:39.924Z,81.28
2022-07-30T00:38:39.923Z,81.08
2022-07-30T00:39:39.932Z,82.03
2022-07-30T00:40:39.894Z,83.04
2022-07-30T00:41:39.909Z,83.14
2022-07-30T00:42:39.874Z,83.24
2022-07-30T00:43:39.864Z,83.28
2022-07-30T00:44:41.139Z,83.98
2022-07-30T00:45:39.923Z,84.23
2022-07-30T00:46:39.829Z,84.43
2022-07-30T00:47:39.830Z,85.58
2022-07-30T00:48:39.868Z,85.88
2022-07-30T00:49:44.135Z,85.17
2022-07-30T00:50:39.791Z,83.82
2022-07-30T00:51:39.788Z,83.14
2022-07-30T00:52:39.769Z,83.38
2022-07-30T00:53:39.754Z,83.28
2022-07-30T00:54:39.817Z,83.28
2022-07-30T00:55:39.745Z,84.03
2022-07-30T00:56:39.735Z,85.44
2022-07-30T00:57:39.713Z,84.73
2022-07-30T00:58:39.699Z,84.93
2022-07-30T00:59:39.816Z,85.14
2022-07-30T01:00:39.690Z,85.17
2022-07-30T01:01:39.671Z,85.38
2022-07-30T01:02:39.771Z,85.62
2022-07-30T01:03:39.647Z,85.93
2022-07-30T01:04:39.662Z,86.53
2022-07-30T01:05:39.621Z,86.63
2022-07-30T01:06:39.613Z,87.13
2022-07-30T01:07:39.608Z,86.98
2022-07-30T01:08:39.612Z,86.87
2022-07-30T01:09:39.606Z,86.77
2022-07-30T01:10:39.577Z,87.38
2022-07-30T01:11:39.561Z,87.48
2022-07-30T01:12:39.567Z,87.52
2022-07-30T01:13:39.542Z,87.42
2022-07-30T01:14:39.575Z,87.73
2022-07-30T01:15:39.514Z,88.53
2022-07-30T01:16:39.546Z,89.24
2022-07-30T01:17:39.495Z,88.68
2022-07-30T01:18:39.486Z,88.98
2022-07-30T01:19:39.492Z,89.08
2022-07-30T01:20:39.481Z,88.88
2022-07-30T01:21:39.451Z,90.05
2022-07-30T01:22:39.444Z,88.59
2022-07-30T01:23:39.851Z,89.10
2022-07-30T01:24:39.468Z,87.88
2022-07-30T01:25:39.407Z,87.99
2022-07-30T01:26:39.417Z,88.25
2022-07-30T01:27:39.413Z,88.19
2022-07-30T01:28:39.377Z,88.19
2022-07-30T01:29:39.399Z,88.29
2022-07-30T01:30:39.396Z,88.74
2022-07-30T01:31:39.373Z,88.84
2022-07-30T01:32:39.353Z,89.34
2022-07-30T01:33:39.322Z,89.14
2022-07-30T01:34:39.324Z,89.79
2022-07-30T01:35:39.316Z,90.20
2022-07-30T01:36:39.293Z,90.50
2022-07-30T01:37:39.281Z,90.60
2022-07-30T01:38:39.290Z,90.44
2022-07-30T01:39:39.277Z,90.64
2022-07-30T01:40:39.252Z,89.83
2022-07-30T01:41:39.239Z,90.69
2022-07-30T01:42:39.227Z,91.30
2022-07-30T01:43:39.214Z,91.44
2022-07-30T01:44:39.248Z,92.25
2022-07-30T01:45:42.392Z,92.25
2022-07-30T01:46:40.195Z,92.55
2022-07-30T01:47:39.171Z,93.06
2022-07-30T01:48:39.228Z,93.30
2022-07-30T01:49:39.173Z,93.30
2022-07-30T01:50:39.204Z,93.51
2022-07-30T01:51:39.128Z,94.06
2022-07-30T01:52:39.117Z,94.17
2022-07-30T01:53:39.108Z,94.06
2022-07-30T01:54:39.113Z,95.07
2022-07-30T01:55:39.104Z,94.77
2022-07-30T01:56:39.088Z,94.87
2022-07-30T01:57:39.073Z,94.67
2022-07-30T01:58:39.071Z,95.18
2022-07-30T01:59:39.048Z,95.63
2022-07-30T02:00:39.092Z,95.73
2022-07-30T02:01:39.019Z,95.32
2022-07-30T02:02:39.036Z,95.53
2022-07-30T02:03:39.067Z,96.03
2022-07-30T02:04:39.004Z,96.03
2022-07-30T02:05:38.976Z,96.03
2022-07-30T02:06:38.968Z,96.75
2022-07-30T02:07:38.957Z,96.54
2022-07-30T02:08:38.971Z,95.87
2022-07-30T02:09:38.971Z,96.69
2022-07-30T02:10:38.944Z,96.99
2022-07-30T02:11:38.914Z,97.09
2022-07-30T02:12:38.925Z,96.89
2022-07-30T02:13:38.889Z,96.89
2022-07-30T02:14:38.899Z,96.89
2022-07-30T02:15:38.917Z,96.89
2022-07-30T02:16:38.901Z,97.09
2022-07-30T02:17:39.916Z,96.59
2022-07-30T02:18:39.646Z,97.20
2022-07-30T02:19:41.696Z,96.99
2022-07-30T02:20:39.258Z,97.04
2022-07-30T02:21:38.820Z,97.34
2022-07-30T02:22:38.794Z,97.34
2022-07-30T02:23:38.782Z,97.24
2022-07-30T02:24:38.801Z,97.34
2022-07-30T02:25:38.784Z,97.65
2022-07-30T02:26:38.754Z,98.16
2022-07-30T02:27:38.757Z,98.36
2022-07-30T02:28:38.729Z,98.05
2022-07-30T02:29:38.736Z,98.41
2022-07-30T02:30:38.711Z,98.46
2022-07-30T02:31:38.747Z,98.20
2022-07-30T02:32:38.685Z,98.20
2022-07-30T02:33:41.198Z,98.20
2022-07-30T02:34:39.704Z,98.41
2022-07-30T02:35:38.660Z,98.91
2022-07-30T02:36:38.641Z,98.81
2022-07-30T02:37:43.306Z,99.11
2022-07-30T02:38:39.617Z,99.22
2022-07-30T02:39:38.621Z,98.91
2022-07-30T02:40:38.632Z,98.71
2022-07-30T02:41:38.612Z,98.81
2022-07-30T02:42:38.583Z,98.50
2022-07-30T02:43:38.567Z,98.61
2022-07-30T02:44:38.578Z,98.71
2022-07-30T02:45:38.545Z,98.86
2022-07-30T02:46:38.637Z,99.11
2022-07-30T02:47:38.531Z,99.11
2022-07-30T02:48:38.587Z,98.14
2022-07-30T02:49:38.519Z,98.66
2022-07-30T02:50:38.493Z,98.66
2022-07-30T02:51:38.485Z,98.86
2022-07-30T02:52:38.489Z,99.06
2022-07-30T02:53:38.458Z,98.66
2022-07-30T02:54:38.461Z,99.06
2022-07-30T02:55:38.440Z,99.47
2022-07-30T02:56:38.461Z,99.77
2022-07-30T02:57:43.259Z,99.99
2022-07-30T02:58:39.416Z,99.67
2022-07-30T02:59:38.431Z,99.99
2022-07-30T03:00:38.471Z,99.93
2022-07-30T03:01:38.437Z,99.57
2022-07-30T03:02:38.359Z,99.06
2022-07-30T03:03:38.348Z,99.27
2022-07-30T03:04:38.347Z,99.21
2022-07-30T03:05:38.345Z,99.16
2022-07-30T03:06:38.318Z,99.72
2022-07-30T03:07:38.329Z,99.92
2022-07-30T03:08:38.303Z,99.99
2022-07-30T03:09:52.336Z,99.99
2022-07-30T03:10:39.275Z,99.99
2022-07-30T03:11:38.300Z,99.99
2022-07-30T03:12:38.250Z,99.99
2022-07-30T03:13:38.238Z,99.99
2022-07-30T03:14:38.234Z,99.99
2022-07-30T03:15:39.509Z,99.99
2022-07-30T03:16:38.347Z,99.99
2022-07-30T03:17:38.215Z,99.99
2022-07-30T03:18:38.190Z,99.99
2022-07-30T03:19:38.203Z,99.99
2022-07-30T03:20:38.167Z,99.88
2022-07-30T03:21:38.170Z,99.99
2022-07-30T03:22:38.144Z,99.99
2022-07-30T03:23:38.150Z,99.16
2022-07-30T03:24:38.138Z,99.06
2022-07-30T03:25:38.130Z,99.27
2022-07-30T03:26:38.118Z,99.11
2022-07-30T03:27:38.088Z,98.56
2022-07-30T03:28:38.080Z,98.26
2022-07-30T03:29:38.114Z,96.84
2022-07-30T03:30:38.058Z,96.44
2022-07-30T03:31:38.136Z,95.89
2022-07-30T03:32:38.038Z,94.73
2022-07-30T03:33:39.218Z,93.37
2022-07-30T03:34:38.036Z,92.86
2022-07-30T03:35:38.013Z,92.55
2022-07-30T03:36:37.993Z,92.25
2022-07-30T03:37:37.982Z,91.80
2022-07-30T03:38:37.971Z,91.90
2022-07-30T03:39:37.993Z,90.64
2022-07-30T03:40:37.994Z,90.09
2022-07-30T03:41:38.530Z,88.98
2022-07-30T03:42:37.964Z,88.33
2022-07-30T03:43:37.921Z,87.82
2022-07-30T03:44:37.923Z,87.62
2022-07-30T03:45:37.894Z,87.82
2022-07-30T03:46:37.941Z,87.52
2022-07-30T03:47:37.890Z,89.04
2022-07-30T03:48:37.861Z,88.13
2022-07-30T03:49:37.872Z,89.14
2022-07-30T03:50:37.857Z,87.52
2022-07-30T03:51:37.841Z,88.84
2022-07-30T03:52:37.856Z,88.33
2022-07-30T03:53:37.814Z,88.53
2022-07-30T03:54:37.797Z,88.57
2022-07-30T03:55:37.803Z,88.98
2022-07-30T03:56:37.777Z,89.08
2022-07-30T03:57:37.769Z,89.08
2022-07-30T03:58:37.786Z,89.32
2022-07-30T03:59:37.763Z,89.63
2022-07-30T04:00:37.735Z,89.67
2022-07-30T04:01:37.791Z,90.28
2022-07-30T04:02:37.720Z,90.22
2022-07-30T04:03:37.749Z,91.24
2022-07-30T04:04:37.726Z,91.24
2022-07-30T04:05:41.658Z,91.13
2022-07-30T04:06:37.676Z,90.88
2022-07-30T04:07:44.901Z,91.17
2022-07-30T04:08:38.646Z,92.09
2022-07-30T04:09:37.651Z,91.99
2022-07-30T04:10:37.645Z,92.84
2022-07-30T04:11:40.920Z,93.05
2022-07-30T04:12:37.605Z,92.94
2022-07-30T04:13:37.612Z,92.89
2022-07-30T04:14:37.612Z,93.19
2022-07-30T04:16:38.237Z,93.84
2022-07-30T04:16:42.237Z,94.66
2022-07-30T04:17:37.625Z,95.87
2022-07-30T04:18:37.541Z,95.57
2022-07-30T04:19:37.550Z,95.57
2022-07-30T04:20:37.550Z,94.70
2022-07-30T04:21:37.510Z,96.12
2022-07-30T04:22:37.529Z,96.43
2022-07-30T04:24:01.749Z,96.53
2022-07-30T04:24:38.490Z,97.08
2022-07-30T04:25:37.465Z,96.83
2022-07-30T04:26:37.455Z,96.83
2022-07-30T04:27:37.444Z,97.24
2022-07-30T04:28:38.521Z,97.24
2022-07-30T04:29:37.438Z,97.24
2022-07-30T04:30:37.411Z,97.55
2022-07-30T04:31:40.123Z,96.98
2022-07-30T04:32:37.391Z,97.34
2022-07-30T04:33:37.378Z,98.36
2022-07-30T04:34:37.402Z,98.16
2022-07-30T04:35:50.905Z,96.94
2022-07-30T04:36:38.343Z,96.95
2022-07-30T04:37:37.334Z,96.64
2022-07-30T04:38:37.348Z,95.94
2022-07-30T04:39:37.326Z,93.32
2022-07-30T04:40:37.348Z,91.96
2022-07-30T04:41:49.375Z,90.60
2022-07-30T04:42:38.276Z,89.85
2022-07-30T04:43:37.268Z,89.34
2022-07-30T04:44:37.269Z,89.00
2022-07-30T04:45:37.248Z,88.79
2022-07-30T04:46:37.285Z,88.79
2022-07-30T04:47:37.228Z,88.79
2022-07-30T04:48:37.216Z,88.09
2022-07-30T04:49:37.232Z,87.48
2022-07-30T04:50:37.195Z,88.79
2022-07-30T04:51:37.181Z,88.19
2022-07-30T04:52:37.185Z,87.34
2022-07-30T04:53:37.162Z,88.35
2022-07-30T04:54:37.166Z,88.04
2022-07-30T04:55:37.139Z,87.54
2022-07-30T04:56:37.126Z,86.83
2022-07-30T04:57:37.117Z,86.69
2022-07-30T04:58:37.118Z,86.08
2022-07-30T04:59:37.138Z,86.39
2022-07-30T05:00:40.948Z,86.19
2022-07-30T05:01:40.323Z,85.48
2022-07-30T05:02:37.070Z,85.64
2022-07-30T05:03:37.068Z,86.25
2022-07-30T05:04:37.056Z,85.44
2022-07-30T05:05:37.065Z,85.94
2022-07-30T05:06:37.022Z,85.03
2022-07-30T05:07:37.015Z,84.99
2022-07-30T05:08:37.004Z,85.19
2022-07-30T05:09:37.015Z,84.89
2022-07-30T05:10:36.976Z,84.09
2022-07-30T05:11:37.004Z,84.19
2022-07-30T05:12:36.956Z,84.69
2022-07-30T05:13:38.351Z,84.49
2022-07-30T05:14:36.933Z,84.65
2022-07-30T05:15:37.428Z,84.59
2022-07-30T05:16:36.914Z,84.39
2022-07-30T05:17:36.938Z,84.25
2022-07-30T05:18:36.890Z,83.84
2022-07-30T05:19:36.882Z,84.05
2022-07-30T05:20:36.869Z,84.25
2022-07-30T05:21:36.870Z,84.81
2022-07-30T05:22:36.866Z,85.72
2022-07-30T05:23:36.853Z,84.21
2022-07-30T05:24:36.843Z,83.50
2022-07-30T05:25:36.818Z,83.10
2022-07-30T05:26:36.803Z,83.20
2022-07-30T05:27:36.796Z,83.26
2022-07-30T05:28:36.789Z,83.46
2022-07-30T05:29:36.818Z,83.26
2022-07-30T05:30:36.760Z,82.76
2022-07-30T05:31:36.768Z,82.82
2022-07-30T05:32:36.742Z,82.31
2022-07-30T05:33:41.136Z,82.65
2022-07-30T05:34:37.749Z,83.12
2022-07-30T05:35:36.715Z,82.82
2022-07-30T05:36:36.720Z,81.91
2022-07-30T05:37:36.689Z,81.41
2022-07-30T05:38:36.677Z,82.18
2022-07-30T05:39:36.683Z,81.57
2022-07-30T05:40:37.654Z,81.87
2022-07-30T05:41:36.646Z,81.84
2022-07-30T05:42:36.632Z,81.33
2022-07-30T05:43:36.658Z,81.53
2022-07-30T05:44:36.634Z,80.63
2022-07-30T05:45:36.617Z,81.13
2022-07-30T05:46:36.699Z,79.72
2022-07-30T05:47:36.591Z,79.68
2022-07-30T05:48:36.578Z,79.99
2022-07-30T05:49:36.598Z,80.58
2022-07-30T05:50:36.543Z,80.69
2022-07-30T05:51:36.534Z,80.65
2022-07-30T05:52:36.538Z,79.94
2022-07-30T05:53:36.579Z,79.14
2022-07-30T05:54:36.514Z,79.44
2022-07-30T05:55:36.511Z,79.54
2022-07-30T05:56:36.502Z,79.81
2022-07-30T05:57:36.593Z,79.71
2022-07-30T05:58:36.477Z,78.20
2022-07-30T05:59:36.468Z,79.41
2022-07-30T06:00:36.435Z,78.50
2022-07-30T06:01:36.456Z,78.77
2022-07-30T06:02:36.424Z,77.96
2022-07-30T06:03:36.422Z,77.46
2022-07-30T06:04:36.509Z,76.62
2022-07-30T06:05:36.389Z,76.52
2022-07-30T06:06:36.374Z,76.78
2022-07-30T06:07:36.362Z,76.98
2022-07-30T06:08:36.350Z,76.68
2022-07-30T06:09:37.338Z,75.38
2022-07-30T06:10:36.340Z,76.04
2022-07-30T06:11:36.317Z,76.45
2022-07-30T06:12:36.318Z,75.14
2022-07-30T06:13:36.322Z,76.85
2022-07-30T06:14:36.342Z,76.51
2022-07-30T06:15:36.380Z,75.81
2022-07-30T06:16:36.269Z,76.37
2022-07-30T06:17:41.464Z,74.17
2022-07-30T06:18:37.280Z,75.17
2022-07-30T06:19:36.230Z,76.64
2022-07-30T06:20:36.231Z,75.43
2022-07-30T06:22:05.570Z,74.54
2022-07-30T06:22:37.207Z,73.39
2022-07-30T06:23:36.211Z,74.80
2022-07-30T06:24:36.190Z,73.53
2022-07-30T06:25:36.164Z,71.72
2022-07-30T06:26:36.152Z,68.96
2022-07-30T06:27:39.603Z,68.37
2022-07-30T06:28:38.836Z,67.00
2022-07-30T06:29:36.155Z,65.18
2022-07-30T06:30:36.224Z,63.85
2022-07-30T06:31:36.105Z,63.16
2022-07-30T06:32:36.104Z,64.55
2022-07-30T06:33:36.105Z,64.69
2022-07-30T06:34:36.066Z,64.58
2022-07-30T06:35:36.059Z,66.17
2022-07-30T06:36:36.045Z,64.98
2022-07-30T06:37:58.555Z,64.25
2022-07-30T06:38:37.035Z,64.45
2022-07-30T06:39:58.128Z,63.63
2022-07-30T06:40:36.999Z,63.30
2022-07-30T06:41:35.992Z,61.35
2022-07-30T06:42:35.983Z,61.69
2022-07-30T06:43:35.997Z,61.36
2022-07-30T06:44:35.962Z,60.41
2022-07-30T06:45:35.990Z,58.01
2022-07-30T06:46:36.010Z,57.06
2022-07-30T06:47:35.928Z,57.10
2022-07-30T06:48:36.020Z,57.57
2022-07-30T06:49:35.979Z,55.37
2022-07-30T06:50:35.922Z,55.57
2022-07-30T06:51:35.883Z,54.41
2022-07-30T06:52:35.913Z,57.43
2022-07-30T06:53:42.642Z,56.93
2022-07-30T06:54:36.892Z,56.17
2022-07-30T06:55:35.889Z,56.74
2022-07-30T06:56:35.863Z,55.72
2022-07-30T06:57:40.344Z,55.82
2022-07-30T06:58:36.840Z,54.51
2022-07-30T06:59:56.597Z,53.45
2022-07-30T07:00:36.804Z,54.79
2022-07-30T07:01:35.897Z,56.42
2022-07-30T07:02:35.777Z,57.34
2022-07-30T07:03:40.330Z,58.03
2022-07-30T07:04:35.834Z,58.80
2022-07-30T07:05:35.740Z,55.73
2022-07-30T07:06:35.742Z,58.77
2022-07-30T07:07:42.038Z,57.95
2022-07-30T07:08:36.717Z,57.89
2022-07-30T07:09:35.691Z,55.49
2022-07-30T07:10:36.731Z,54.58
2022-07-30T07:11:35.724Z,54.65
2022-07-30T07:12:35.698Z,58.08
2022-07-30T07:13:35.688Z,55.04
2022-07-30T07:14:35.718Z,53.56
2022-07-30T07:15:36.771Z,51.07
2022-07-30T07:16:35.669Z,51.97
2022-07-30T07:17:35.653Z,52.85
2022-07-30T07:18:35.610Z,53.64
2022-07-30T07:19:59.648Z,55.11
2022-07-30T07:20:36.664Z,51.99
2022-07-30T07:21:35.575Z,54.84
2022-07-30T07:22:35.547Z,53.42
2022-07-30T07:23:41.514Z,56.74
2022-07-30T07:24:36.537Z,54.55
2022-07-30T07:25:35.528Z,53.31
2022-07-30T07:26:35.519Z,50.54
2022-07-30T07:27:35.504Z,51.22
2022-07-30T07:28:35.516Z,51.81
2022-07-30T07:29:35.475Z,51.54
2022-07-30T07:30:35.600Z,51.03
2022-07-30T07:32:02.505Z,52.82
2022-07-30T07:32:36.443Z,51.52
2022-07-30T07:33:35.471Z,49.16
2022-07-30T07:34:35.421Z,50.63
2022-07-30T07:35:45.504Z,50.51
2022-07-30T07:36:36.433Z,50.21
2022-07-30T07:37:35.389Z,52.25
2022-07-30T07:38:35.388Z,49.48
2022-07-30T07:39:38.365Z,49.58
2022-07-30T07:40:36.357Z,49.19
2022-07-30T07:41:48.324Z,51.54
2022-07-30T07:42:36.367Z,50.66
2022-07-30T07:43:35.344Z,50.39
2022-07-30T07:44:35.320Z,48.43
2022-07-30T07:45:35.327Z,50.24
2022-07-30T07:46:35.347Z,50.85
2022-07-30T07:47:35.286Z,50.76
2022-07-30T07:48:35.274Z,51.03
2022-07-30T07:49:35.328Z,52.08
2022-07-30T07:50:35.256Z,50.73
2022-07-30T07:51:47.584Z,49.82
2022-07-30T07:52:36.238Z,50.66
2022-07-30T07:53:35.236Z,49.60
2022-07-30T07:54:35.222Z,50.81
2022-07-30T07:55:35.199Z,52.94
2022-07-30T07:56:35.224Z,48.60
2022-07-30T07:57:35.190Z,51.57
2022-07-30T07:58:35.184Z,50.39
2022-07-30T07:59:39.954Z,50.98
2022-07-30T08:00:36.242Z,50.68
2022-07-30T08:01:35.315Z,51.57
2022-07-30T08:02:35.202Z,53.04
2022-07-30T08:03:35.202Z,51.45
2022-07-30T08:04:35.175Z,50.88
2022-07-30T08:05:54.418Z,50.24
2022-07-30T08:06:36.096Z,48.79
2022-07-30T08:07:35.079Z,49.70
2022-07-30T08:08:35.074Z,50.56
2022-07-30T08:09:44.325Z,50.27
2022-07-30T08:10:36.135Z,49.80
2022-07-30T08:11:35.034Z,50.51
2022-07-30T08:12:35.047Z,52.84
2022-07-30T08:13:48.678Z,51.17
2022-07-30T08:14:35.996Z,52.97
2022-07-30T08:15:35.000Z,50.39
2022-07-30T08:16:35.083Z,50.49
2022-07-30T08:17:34.982Z,50.59
2022-07-30T08:18:34.999Z,50.46
2022-07-30T08:19:34.980Z,49.13
2022-07-30T08:20:35.041Z,51.35
2022-07-30T08:21:35.008Z,50.34
2022-07-30T08:22:34.916Z,51.42
2022-07-30T08:23:34.935Z,53.36
2022-07-30T08:24:34.937Z,54.22
2022-07-30T08:25:34.918Z,50.68
2022-07-30T08:26:34.865Z,50.16
2022-07-30T08:27:34.867Z,50.59
2022-07-30T08:28:36.599Z,52.72
2022-07-30T08:29:34.855Z,48.69
2022-07-30T08:31:34.819Z,49.26
2022-07-30T08:32:34.814Z,49.26
2022-07-30T08:33:34.803Z,51.64
2022-07-30T08:34:34.781Z,51.10
2022-07-30T08:35:34.768Z,50.39
2022-07-30T08:36:34.761Z,49.31
2022-07-30T08:37:34.780Z,47.94
2022-07-30T08:38:34.797Z,51.54
2022-07-30T08:39:34.728Z,51.37
2022-07-30T08:40:34.723Z,52.72
2022-07-30T08:41:34.707Z,50.66
2022-07-30T08:42:34.745Z,49.33
2022-07-30T08:43:34.700Z,50.90
2022-07-30T08:44:34.729Z,53.14
2022-07-30T08:45:35.428Z,53.31
2022-07-30T08:46:34.780Z,51.96
2022-07-30T08:47:34.680Z,52.55
2022-07-30T08:48:34.756Z,49.58
2022-07-30T08:49:34.626Z,50.27
2022-07-30T08:50:34.617Z,51.39
2022-07-30T08:51:34.654Z,48.03
2022-07-30T08:52:34.677Z,49.38
2022-07-30T08:53:34.614Z,50.37
2022-07-30T08:54:34.712Z,49.07
2022-07-30T08:55:35.290Z,47.87
2022-07-30T08:56:42.601Z,49.24
2022-07-30T08:57:34.553Z,47.89
2022-07-30T08:58:34.567Z,49.07
2022-07-30T08:59:59.295Z,46.23
2022-07-30T09:00:35.530Z,47.60
2022-07-30T09:01:34.495Z,48.46
2022-07-30T09:02:34.577Z,48.87
2022-07-30T09:03:34.533Z,48.21
2022-07-30T09:04:39.715Z,46.05
2022-07-30T09:05:34.493Z,46.98
2022-07-30T09:06:34.493Z,48.25
2022-07-30T09:07:34.464Z,51.54
2022-07-30T09:08:34.428Z,50.34
2022-07-30T09:09:34.554Z,50.09
2022-07-30T09:10:34.453Z,47.94
2022-07-30T09:11:34.557Z,51.32
2022-07-30T09:12:35.161Z,47.69
2022-07-30T09:13:34.564Z,49.16
2022-07-30T09:14:56.136Z,45.32
2022-07-30T09:15:34.400Z,44.24
2022-07-30T09:16:34.365Z,43.07
2022-07-30T09:17:34.457Z,44.05
2022-07-30T09:18:34.360Z,45.44
2022-07-30T09:19:34.394Z,45.07
2022-07-30T09:20:34.314Z,46.34
2022-07-30T09:21:34.755Z,44.53
2022-07-30T09:22:38.339Z,46.08
2022-07-30T09:23:34.370Z,47.55
2022-07-30T09:24:34.277Z,44.16
2022-07-30T09:25:34.249Z,45.70
2022-07-30T09:26:34.233Z,42.29
2022-07-30T09:27:34.235Z,48.30
2022-07-30T09:28:34.214Z,45.75
2022-07-30T09:29:34.266Z,47.69
2022-07-30T09:32:50.696Z,43.98
2022-07-30T09:33:51.316Z,44.26
2022-07-30T09:34:50.507Z,44.12
2022-07-30T09:35:50.469Z,46.84
2022-07-30T09:36:50.495Z,46.34
2022-07-30T09:37:50.406Z,48.92
2022-07-30T09:38:50.406Z,45.59
2022-07-30T09:39:58.941Z,44.27
2022-07-30T09:40:51.395Z,46.95
2022-07-30T09:41:51.434Z,48.50
2022-07-30T09:42:50.371Z,44.74
2022-07-30T09:43:50.352Z,45.70
2022-07-30T09:44:50.414Z,45.51
2022-07-30T09:45:56.843Z,46.15
2022-07-30T09:46:51.314Z,41.82
2022-07-30T09:47:50.324Z,45.19
2022-07-30T09:48:50.344Z,44.35
2022-07-30T09:49:50.361Z,45.63
2022-07-30T09:50:50.320Z,44.33
2022-07-30T09:52:01.375Z,48.99
2022-07-30T09:52:50.261Z,45.03
2022-07-30T09:53:50.299Z,45.03
2022-07-30T09:55:51.254Z,46.36
2022-07-30T09:56:53.673Z,42.05
2022-07-30T09:57:51.479Z,42.81
2022-07-30T09:58:50.349Z,42.97
2022-07-30T10:01:00.912Z,43.66
2022-07-30T10:02:10.166Z,43.37
2022-07-30T10:03:00.506Z,44.34
2022-07-30T10:04:01.497Z,43.44
2022-07-30T10:05:00.524Z,42.78
2022-07-30T10:06:00.494Z,44.05
2022-07-30T10:07:00.518Z,41.70
2022-07-30T10:08:01.223Z,42.58
2022-07-30T10:09:00.554Z,44.91
2022-07-30T10:10:01.587Z,42.78
2022-07-30T10:11:00.471Z,44.34
2022-07-30T10:12:02.668Z,43.99
2022-07-30T10:13:00.952Z,44.33
2022-07-30T10:14:00.419Z,45.97
2022-07-30T10:15:00.428Z,49.63
2022-07-30T10:16:00.417Z,48.69
2022-07-30T10:17:00.404Z,47.49
2022-07-30T10:18:00.362Z,47.16
2022-07-30T10:19:00.496Z,47.91
2022-07-30T10:20:02.879Z,45.32
2022-07-30T10:21:01.364Z,46.45
2022-07-30T10:22:00.695Z,42.22
2022-07-30T10:23:00.382Z,45.45
2022-07-30T10:24:01.308Z,44.03
2022-07-30T10:25:00.293Z,45.17
2022-07-30T10:26:00.293Z,47.27
2022-07-30T10:27:00.703Z,47.83
2022-07-30T10:28:02.807Z,45.81
2022-07-30T10:29:00.287Z,50.44
2022-07-30T10:30:04.115Z,50.39
2022-07-30T10:31:00.244Z,45.12
2022-07-30T10:32:00.218Z,45.47
2022-07-30T10:33:00.347Z,46.49
2022-07-30T10:34:00.237Z,49.14
2022-07-30T10:35:00.213Z,50.66
2022-07-30T10:36:02.747Z,46.03
2022-07-30T10:37:00.725Z,47.50
2022-07-30T10:38:00.185Z,44.15
2022-07-30T10:39:00.165Z,45.72
2022-07-30T10:40:00.190Z,44.13
2022-07-30T10:41:00.189Z,47.50
2022-07-30T10:42:00.110Z,41.91
2022-07-30T10:43:00.101Z,41.36
2022-07-30T10:44:00.093Z,44.10
2022-07-30T10:45:00.119Z,43.95
2022-07-30T10:46:00.514Z,42.82
2022-07-30T10:47:00.622Z,44.73
2022-07-30T10:48:01.055Z,46.06
2022-07-30T10:49:00.119Z,48.35
2022-07-30T10:50:00.077Z,47.07
2022-07-30T10:51:00.087Z,45.99
2022-07-30T10:52:00.091Z,44.76
2022-07-30T10:53:00.002Z,46.33
2022-07-30T10:54:00.001Z,46.65
2022-07-30T10:55:00.206Z,51.00
2022-07-30T10:55:59.981Z,48.25
2022-07-30T10:57:00.320Z,49.01
2022-07-30T10:57:59.965Z,45.19
2022-07-30T10:58:59.977Z,43.68
2022-07-30T11:00:00.742Z,42.68
2022-07-30T11:00:59.945Z,42.07
2022-07-30T11:01:59.932Z,44.79
2022-07-30T11:02:59.946Z,41.96
2022-07-30T11:04:01.199Z,40.97
2022-07-30T11:05:10.383Z,40.76
2022-07-30T11:05:59.944Z,42.52
2022-07-30T11:06:59.887Z,45.43
2022-07-30T11:07:59.879Z,42.79
2022-07-30T11:08:59.915Z,48.12
2022-07-30T11:10:05.522Z,43.14
2022-07-30T11:11:19.539Z,46.34
2022-07-30T11:12:06.063Z,43.63
2022-07-30T11:13:01.882Z,41.02
2022-07-30T11:14:10.151Z,41.89
2022-07-30T11:15:18.740Z,42.01
2022-07-30T11:16:00.887Z,45.55
2022-07-30T11:16:59.793Z,41.33
2022-07-30T11:17:59.770Z,45.67
2022-07-30T11:19:27.499Z,42.66
2022-07-30T11:20:01.850Z,48.46
2022-07-30T11:21:00.266Z,44.30
2022-07-30T11:22:04.193Z,45.33
2022-07-30T11:22:59.733Z,46.80
2022-07-30T11:23:59.785Z,45.87
2022-07-30T11:24:59.707Z,46.24
2022-07-30T11:25:59.702Z,44.17
2022-07-30T11:27:00.401Z,40.29
2022-07-30T11:27:59.674Z,42.26
2022-07-30T11:28:59.677Z,43.32
2022-07-30T11:29:59.813Z,43.38
2022-07-30T11:30:59.673Z,45.31
2022-07-30T11:32:03.986Z,44.18
2022-07-30T11:33:00.626Z,45.12
2022-07-30T11:33:59.623Z,46.74
2022-07-30T11:34:59.613Z,48.19
2022-07-30T11:35:59.591Z,49.14
2022-07-30T11:36:59.662Z,44.98
2022-07-30T11:38:01.973Z,40.82
2022-07-30T11:39:06.842Z,45.00
2022-07-30T11:40:00.881Z,45.05
2022-07-30T11:40:59.590Z,42.88
2022-07-30T11:41:59.857Z,44.73
2022-07-30T11:42:59.525Z,47.36
2022-07-30T11:43:59.525Z,45.55
2022-07-30T11:45:03.812Z,41.93
2022-07-30T11:45:59.533Z,44.77
2022-07-30T11:46:59.557Z,43.96
2022-07-30T11:47:59.493Z,41.91
2022-07-30T11:48:59.516Z,41.35
2022-07-30T11:49:59.497Z,42.15
2022-07-30T11:51:03.693Z,42.90
2022-07-30T11:51:59.913Z,44.09
2022-07-30T11:52:59.427Z,45.80
2022-07-30T11:53:59.439Z,47.42
2022-07-30T11:54:59.444Z,47.91
2022-07-30T11:55:59.406Z,49.14
2022-07-30T11:57:04.084Z,47.60
2022-07-30T11:58:00.401Z,48.82
2022-07-30T11:58:59.386Z,42.05
2022-07-30T11:59:59.384Z,42.83
2022-07-30T12:00:59.374Z,48.19
2022-07-30T12:01:59.747Z,43.65
2022-07-30T12:03:02.403Z,44.24
2022-07-30T12:03:59.411Z,41.28
2022-07-30T12:04:59.360Z,42.34
2022-07-30T12:05:59.489Z,43.90
2022-07-30T12:06:59.591Z,41.25
2022-07-30T12:07:59.293Z,46.92
2022-07-30T12:08:59.381Z,44.48
2022-07-30T12:09:59.297Z,40.58
2022-07-30T12:10:59.261Z,41.83
2022-07-30T12:11:59.294Z,39.98
2022-07-30T12:12:59.279Z,39.70
2022-07-30T12:13:59.282Z,39.62
2022-07-30T12:15:02.035Z,43.71
2022-07-30T12:15:59.215Z,41.93
2022-07-30T12:16:59.703Z,40.03
2022-07-30T12:18:24.156Z,40.80
2022-07-30T12:19:00.218Z,38.34
2022-07-30T12:19:59.190Z,39.98
2022-07-30T12:20:59.587Z,40.17
2022-07-30T12:21:59.182Z,40.75
2022-07-30T12:22:59.184Z,41.06
2022-07-30T12:24:00.470Z,38.93
2022-07-30T12:24:59.185Z,42.72
2022-07-30T12:25:59.142Z,41.46
2022-07-30T12:26:59.298Z,40.48
2022-07-30T12:27:59.154Z,41.60
2022-07-30T12:28:59.105Z,41.99
2022-07-30T12:29:59.178Z,42.69
2022-07-30T12:30:59.127Z,41.63
2022-07-30T12:31:59.127Z,40.27
2022-07-30T12:33:01.864Z,42.41
2022-07-30T12:33:59.465Z,43.35
2022-07-30T12:34:59.062Z,40.89
2022-07-30T12:35:59.047Z,40.68
2022-07-30T12:36:59.270Z,39.70
2022-07-30T12:37:59.017Z,42.14
2022-07-30T12:38:59.037Z,42.63
2022-07-30T12:39:59.110Z,41.38
2022-07-30T12:40:59.411Z,43.08
2022-07-30T12:41:59.442Z,41.31
2022-07-30T12:42:59.045Z,41.64
2022-07-30T12:43:59.006Z,44.01
2022-07-30T12:44:59.001Z,42.03
2022-07-30T12:45:59.019Z,41.91
2022-07-30T12:46:59.059Z,42.83
2022-07-30T12:47:59.036Z,38.59
2022-07-30T12:48:59.004Z,41.42
2022-07-30T12:50:01.472Z,42.18
2022-07-30T12:51:02.399Z,41.46
2022-07-30T12:52:00.756Z,40.47
2022-07-30T12:52:58.920Z,44.43
2022-07-30T12:53:58.919Z,41.10
2022-07-30T12:54:58.862Z,39.67
2022-07-30T12:55:58.872Z,39.57
2022-07-30T12:56:59.148Z,40.09
2022-07-30T12:58:01.593Z,41.62